Time;durP1;ratioP1;P1;durP2;ratioP2;P2;SDS_P1;SDS_P2;PMS_P1;PMS_P2;Temp;Humidity;BMP_temperature;BMP_pressure;BME280_temperature;BME280_humidity;BME280_pressure;Samples;Min_cycle;Max_cycle;Signal;HPM_P1;HPM_P2
2022/08/06 00:01:32;;;;;;;0.10;0.10;;;;;;;11.05;100.00;101188.97;5053419;28;20194;-76
2022/08/06 00:03:57;;;;;;;0.00;0.00;;;;;;;11.06;100.00;101183.19;5053073;28;20175;-75
2022/08/06 00:06:23;;;;;;;31.30;2.60;;;;;;;11.06;100.00;101191.41;5053361;28;20704;-76
2022/08/06 00:08:48;;;;;;;0.00;0.00;;;;;;;11.11;100.00;101195.97;5051569;28;20179;-77
2022/08/06 00:11:14;;;;;;;0.07;0.07;;;;;;;11.12;100.00;101201.13;5051749;28;20545;-76
2022/08/06 00:13:39;;;;;;;0.00;0.00;;;;;;;11.17;100.00;101205.75;5051807;28;20206;-76
2022/08/06 00:16:04;;;;;;;0.10;0.10;;;;;;;11.14;99.43;101206.31;5052923;28;20282;-77
2022/08/06 00:18:30;;;;;;;17.03;0.67;;;;;;;11.06;99.32;101209.72;5070474;28;20645;-77
2022/08/06 00:20:55;;;;;;;0.00;0.00;;;;;;;11.07;99.57;101212.16;5072972;28;20536;-76
2022/08/06 00:23:20;;;;;;;0.00;0.00;;;;;;;11.05;99.46;101210.84;5073112;28;20174;-76
2022/08/06 00:25:46;;;;;;;0.00;0.00;;;;;;;11.05;99.51;101208.91;5072902;28;20174;-77
2022/08/06 00:28:11;;;;;;;0.43;0.43;;;;;;;11.16;99.05;101213.13;5069968;28;20546;-77
2022/08/06 00:30:36;;;;;;;0.47;0.47;;;;;;;11.17;99.36;101208.47;5070031;28;20181;-77
2022/08/06 00:33:02;;;;;;;0.43;0.40;;;;;;;11.18;98.87;101215.56;5072721;28;20177;-77
2022/08/06 00:35:27;;;;;;;0.20;0.20;;;;;;;11.18;99.33;101216.38;5073197;28;20253;-78
2022/08/06 00:37:52;;;;;;;0.00;0.00;;;;;;;11.17;99.03;101212.03;5072872;28;20550;-77
2022/08/06 00:40:19;;;;;;;0.00;0.00;;;;;;;11.17;98.57;101214.75;5072457;28;20653;-77
2022/08/06 00:42:45;;;;;;;0.10;0.10;;;;;;;11.14;98.40;101215.34;5072587;28;20186;-77
2022/08/06 00:45:10;;;;;;;0.13;0.10;;;;;;;11.09;98.91;101220.88;5072870;28;20171;-76
2022/08/06 00:47:36;;;;;;;0.00;0.00;;;;;;;11.07;98.30;101225.84;5072453;28;20187;-76
2022/08/06 00:50:02;;;;;;;0.40;0.40;;;;;;;11.05;98.70;101228.06;5072458;28;20170;-77
2022/08/06 00:52:27;;;;;;;0.20;0.20;;;;;;;10.96;99.05;101238.00;5072251;28;20182;-76
2022/08/06 00:54:52;;;;;;;0.00;0.00;;;;;;;10.97;99.70;101231.44;5072446;28;20536;-77
2022/08/06 00:57:18;;;;;;;0.20;0.20;;;;;;;10.96;100.00;101244.28;5070500;28;20198;-77
2022/08/06 00:59:43;;;;;;;0.10;0.10;;;;;;;10.94;100.00;101238.31;5071930;28;20618;-77
2022/08/06 01:02:08;;;;;;;0.10;0.10;;;;;;;10.93;100.00;101235.88;5070911;28;20253;-77
2022/08/06 01:04:34;;;;;;;0.10;0.10;;;;;;;10.93;100.00;101235.88;5072253;28;20693;-76
2022/08/06 01:06:59;;;;;;;0.00;0.00;;;;;;;11.02;100.00;101242.31;5072127;28;20179;-77
2022/08/06 01:09:25;;;;;;;0.00;0.00;;;;;;;11.09;100.00;101244.69;5071912;28;20174;-77
2022/08/06 01:11:50;;;;;;;4.23;0.57;;;;;;;11.17;99.76;101236.63;5072278;28;20521;-77
2022/08/06 01:14:16;;;;;;;0.00;0.00;;;;;;;11.17;98.75;101253.03;5071581;28;20163;-76
2022/08/06 01:16:55;;;;;;;0.07;0.07;;;;;;;11.20;98.80;101246.16;5071569;28;20423;-77
2022/08/06 01:19:47;;;;;;;1.07;1.07;;;;;;;11.16;98.69;101254.16;5071680;28;20167;-77
2022/08/06 01:22:34;;;;;;;0.00;0.00;;;;;;;11.13;99.37;101253.91;5071964;28;20175;-77
2022/08/06 01:25:05;;;;;;;0.10;0.10;;;;;;;11.13;98.96;101251.16;5071807;28;20239;-77
2022/08/06 01:27:42;;;;;;;0.10;0.10;;;;;;;11.21;98.51;101253.25;5071566;28;20175;-77
2022/08/06 01:30:12;;;;;;;0.10;0.10;;;;;;;11.20;98.75;101249.72;5071341;28;20710;-76
2022/08/06 01:32:43;;;;;;;0.67;0.20;;;;;;;11.15;99.18;101252.53;5071661;28;20173;-77
2022/08/06 01:35:16;;;;;;;0.20;0.20;;;;;;;11.22;98.99;101252.97;5071613;28;20177;-77
2022/08/06 01:37:49;;;;;;;0.00;0.00;;;;;;;11.28;97.51;101251.78;5071361;28;20649;-77
2022/08/06 01:40:22;;;;;;;0.00;0.00;;;;;;;11.21;98.17;101245.06;5071181;28;20177;-77
2022/08/06 01:42:51;;;;;;;0.00;0.00;;;;;;;11.26;97.86;101247.69;5071586;28;20170;-75
2022/08/06 01:45:19;;;;;;;0.10;0.10;;;;;;;11.29;97.91;101261.63;5072389;28;20266;-75
2022/08/06 01:47:49;;;;;;;0.00;0.00;;;;;;;11.24;97.45;101253.47;5073022;28;20196;-75
2022/08/06 01:50:17;;;;;;;0.00;0.00;;;;;;;11.28;97.93;101259.16;5071974;28;20222;-74
2022/08/06 01:52:43;;;;;;;0.00;0.00;;;;;;;11.25;98.92;101257.03;5071392;28;20636;-74
2022/08/06 01:55:14;;;;;;;0.00;0.00;;;;;;;11.16;98.74;101262.34;5071210;28;20171;-73
2022/08/06 01:57:57;;;;;;;0.20;0.20;;;;;;;11.18;99.02;101262.06;5071262;28;20232;-76
2022/08/06 02:00:23;;;;;;;0.00;0.00;;;;;;;11.14;98.95;101258.28;5070771;28;20524;-75
2022/08/06 02:02:51;;;;;;;0.00;0.00;;;;;;;11.13;99.18;101253.91;5071197;28;20194;-73
2022/08/06 02:05:19;;;;;;;0.03;0.03;;;;;;;11.15;99.39;101258.00;5071017;28;20506;-76
2022/08/06 02:07:50;;;;;;;0.10;0.10;;;;;;;11.17;99.43;101247.56;5070915;28;20170;-76
2022/08/06 02:10:18;;;;;;;0.00;0.00;;;;;;;11.22;99.41;101249.41;5050984;28;20182;-76
2022/08/06 02:12:46;;;;;;;0.10;0.10;;;;;;;11.19;99.19;101253.56;5050947;28;20178;-75
2022/08/06 02:15:17;;;;;;;0.00;0.00;;;;;;;11.11;99.39;101248.75;5051020;28;20233;-75
2022/08/06 02:17:54;;;;;;;0.00;0.00;;;;;;;11.11;100.00;101251.47;5050499;28;20253;-77
2022/08/06 02:20:25;;;;;;;0.00;0.00;;;;;;;11.10;99.51;101249.84;5050649;28;20171;-74
2022/08/06 02:22:53;;;;;;;0.10;0.10;;;;;;;11.13;99.76;101249.25;5050932;28;20607;-77
2022/08/06 02:25:20;;;;;;;0.00;0.00;;;;;;;11.14;100.00;101259.13;5050978;28;20194;-77
2022/08/06 02:27:49;;;;;;;0.00;0.00;;;;;;;11.12;99.63;101258.56;5049735;28;20183;-76
2022/08/06 02:30:14;;;;;;;0.00;0.00;;;;;;;11.16;99.46;101256.88;5049124;28;20179;-74
2022/08/06 02:32:40;;;;;;;0.00;0.00;;;;;;;11.22;99.00;101254.88;5049375;28;20174;-76
2022/08/06 02:35:06;;;;;;;0.40;0.40;;;;;;;11.27;98.61;101274.75;5050609;28;20258;-74
2022/08/06 02:37:41;;;;;;;0.10;0.10;;;;;;;11.28;98.34;101264.63;5049196;28;20215;-75
2022/08/06 02:40:17;;;;;;;0.10;0.10;;;;;;;11.29;98.38;101275.31;5050433;28;20162;-76
2022/08/06 02:42:48;;;;;;;0.00;0.00;;;;;;;11.30;98.23;101278.84;5050579;28;20237;-75
2022/08/06 02:45:19;;;;;;;0.20;0.10;;;;;;;11.27;98.65;101280.22;5050835;28;20662;-76
2022/08/06 02:48:04;;;;;;;0.00;0.00;;;;;;;11.28;98.47;101284.63;5050432;28;20184;-76
2022/08/06 02:50:38;;;;;;;0.00;0.00;;;;;;;11.30;98.85;101281.59;5050604;28;20183;-77
2022/08/06 02:53:08;;;;;;;0.00;0.00;;;;;;;11.31;98.35;101286.75;5050634;28;20199;-77
2022/08/06 02:55:38;;;;;;;0.00;0.00;;;;;;;11.32;98.62;101287.56;5050548;28;20175;-74
2022/08/06 02:58:18;;;;;;;0.20;0.20;;;;;;;11.30;99.05;101281.59;5050501;28;20560;-78
2022/08/06 03:00:47;;;;;;;0.00;0.00;;;;;;;11.31;98.91;101292.22;5050194;28;20183;-77
2022/08/06 03:03:15;;;;;;;0.00;0.00;;;;;;;11.28;98.81;101298.31;5050595;28;20183;-76
2022/08/06 03:05:43;;;;;;;0.00;0.00;;;;;;;11.26;98.76;101289.56;5050524;28;20650;-75
2022/08/06 03:08:10;;;;;;;0.00;0.00;;;;;;;11.27;99.76;101299.38;5049821;28;20574;-75
2022/08/06 03:10:36;;;;;;;0.00;0.00;;;;;;;11.27;99.42;101296.66;5050417;28;20182;-74
2022/08/06 03:13:05;;;;;;;0.00;0.00;;;;;;;11.24;99.53;101299.97;5050308;28;20206;-76
2022/08/06 03:15:33;;;;;;;0.00;0.00;;;;;;;11.19;100.00;101297.31;5050749;28;20241;-77
2022/08/06 03:18:00;;;;;;;0.00;0.00;;;;;;;11.11;100.00;101303.44;5049993;28;20743;-76
2022/08/06 03:20:26;;;;;;;0.00;0.00;;;;;;;11.07;100.00;101315.25;5050168;28;20187;-77
2022/08/06 03:22:56;;;;;;;0.10;0.10;;;;;;;10.98;100.00;101304.16;5048904;28;20182;-75
2022/08/06 03:25:22;;;;;;;0.10;0.10;;;;;;;10.91;100.00;101312.72;5067765;28;20767;-75
2022/08/06 03:27:50;;;;;;;0.00;0.00;;;;;;;10.76;100.00;101312.91;5068659;28;20542;-76
2022/08/06 03:30:18;;;;;;;0.00;0.00;;;;;;;10.72;100.00;101320.88;5069828;28;20560;-75
2022/08/06 03:32:45;;;;;;;0.00;0.00;;;;;;;10.63;100.00;101314.41;5070114;28;20175;-74
2022/08/06 03:35:11;;;;;;;0.00;0.00;;;;;;;10.62;100.00;101311.97;5070181;28;20174;-78
2022/08/06 03:37:38;;;;;;;0.00;0.00;;;;;;;10.72;100.00;101318.16;5070500;28;20229;-76
2022/08/06 03:40:05;;;;;;;0.00;0.00;;;;;;;10.72;100.00;101314.59;5073539;28;20265;-73
2022/08/06 03:42:31;;;;;;;0.07;0.07;;;;;;;10.67;100.00;101320.91;5073727;28;20254;-77
2022/08/06 03:44:56;;;;;;;0.00;0.00;;;;;;;10.67;100.00;101331.84;5073817;28;20287;-74
2022/08/06 03:47:25;;;;;;;0.00;0.00;;;;;;;10.57;100.00;101331.16;5073587;28;20167;-73
2022/08/06 03:50:10;;;;;;;0.00;0.00;;;;;;;10.58;100.00;101332.78;5073346;28;20183;-77
2022/08/06 03:52:48;;;;;;;0.00;0.00;;;;;;;10.57;100.00;101337.44;5073688;28;20241;-76
2022/08/06 03:55:27;;;;;;;0.00;0.00;;;;;;;10.57;100.00;101336.63;5073824;28;20178;-75
2022/08/06 03:57:57;;;;;;;0.77;0.77;;;;;;;10.53;100.00;101332.81;5072956;28;20526;-77
2022/08/06 04:00:25;;;;;;;0.00;0.00;;;;;;;10.52;100.00;101339.41;5069328;28;20573;-77
2022/08/06 04:02:52;;;;;;;5.07;0.40;;;;;;;10.51;100.00;101341.31;5073283;28;20197;-77
2022/08/06 04:05:21;;;;;;;0.00;0.00;;;;;;;10.55;100.00;101333.34;5073360;28;20194;-76
2022/08/06 04:07:49;;;;;;;0.10;0.10;;;;;;;10.55;100.00;101339.63;5073217;28;20182;-78
2022/08/06 04:10:17;;;;;;;0.00;0.00;;;;;;;10.64;100.00;101342.56;5073169;28;20570;-76
2022/08/06 04:12:44;;;;;;;0.00;0.00;;;;;;;10.63;100.00;101346.38;5073233;28;20213;-77
2022/08/06 04:15:12;;;;;;;0.37;0.10;;;;;;;10.73;100.00;101349.03;5073365;28;20182;-78
2022/08/06 04:17:38;;;;;;;0.03;0.03;;;;;;;10.85;100.00;101359.53;5072929;28;20209;-78
2022/08/06 04:20:06;;;;;;;0.30;0.30;;;;;;;10.94;100.00;101360.53;5072709;28;20181;-77
2022/08/06 04:22:32;;;;;;;0.10;0.10;;;;;;;11.02;100.00;101368.91;5071658;28;20171;-76
2022/08/06 04:24:58;;;;;;;0.97;0.97;;;;;;;11.07;100.00;101375.44;5072884;28;20167;-78
2022/08/06 04:27:23;;;;;;;0.10;0.10;;;;;;;11.09;100.00;101378.69;5072751;28;20175;-78
2022/08/06 04:29:52;;;;;;;0.10;0.10;;;;;;;11.09;100.00;101379.50;5072580;28;20301;-77
2022/08/06 04:32:20;;;;;;;0.20;0.20;;;;;;;11.14;100.00;101384.91;5072653;28;20179;-78
2022/08/06 04:34:47;;;;;;;0.10;0.10;;;;;;;11.20;100.00;101383.75;5072958;28;20182;-78
2022/08/06 04:37:12;;;;;;;0.37;0.37;;;;;;;11.24;100.00;101390.25;5072475;28;20206;-78
2022/08/06 04:39:38;;;;;;;0.13;0.13;;;;;;;11.28;100.00;101396.78;5072465;28;20200;-79
2022/08/06 04:42:05;;;;;;;0.03;0.03;;;;;;;11.33;100.00;101393.97;5072577;28;20652;-78
2022/08/06 04:44:30;;;;;;;0.00;0.00;;;;;;;11.42;100.00;101401.50;5072635;28;20228;-78
2022/08/06 04:46:57;;;;;;;0.10;0.10;;;;;;;11.46;100.00;101403.38;5072258;28;20917;-77
2022/08/06 04:49:22;;;;;;;0.00;0.00;;;;;;;11.51;100.00;101410.72;5071170;28;20209;-77
2022/08/06 04:51:48;;;;;;;0.03;0.03;;;;;;;11.59;100.00;101401.84;5071009;28;20175;-78
2022/08/06 04:54:14;;;;;;;0.20;0.20;;;;;;;11.59;99.81;101415.53;5072517;28;20191;-76
2022/08/06 04:56:41;;;;;;;0.10;0.10;;;;;;;11.58;99.55;101419.38;5072269;28;20213;-77
2022/08/06 04:59:07;;;;;;;0.10;0.10;;;;;;;11.56;98.59;101424.31;5071175;28;20216;-78
2022/08/06 05:01:32;;;;;;;0.00;0.00;;;;;;;11.59;99.08;101424.56;5072174;28;20547;-76
2022/08/06 05:03:58;;;;;;;0.00;0.00;;;;;;;11.67;99.32;101422.25;5072172;28;20228;-77
2022/08/06 05:06:38;;;;;;;1.10;0.37;;;;;;;11.71;98.84;101431.50;5072132;28;20514;-77
2022/08/06 05:09:11;;;;;;;0.00;0.00;;;;;;;11.75;97.93;101436.13;5071945;28;20204;-78
2022/08/06 05:11:40;;;;;;;1.50;0.40;;;;;;;11.79;97.29;101444.59;5071996;28;20252;-78
2022/08/06 05:14:15;;;;;;;0.90;0.40;;;;;;;11.83;97.72;101435.47;5072118;28;20185;-77
2022/08/06 05:16:44;;;;;;;0.93;0.93;;;;;;;11.88;97.16;101437.34;5071736;28;20292;-76
2022/08/06 05:19:15;;;;;;;0.53;0.53;;;;;;;11.93;96.66;101445.47;5071657;28;20211;-77
2022/08/06 05:21:41;;;;;;;0.40;0.40;;;;;;;12.02;95.46;101449.19;5071757;28;20223;-76
2022/08/06 05:24:07;;;;;;;0.10;0.10;;;;;;;12.09;95.21;101443.31;5072017;28;20174;-78
2022/08/06 05:26:33;;;;;;;0.30;0.30;;;;;;;12.14;94.96;101448.72;5071618;28;20170;-77
2022/08/06 05:28:59;;;;;;;0.20;0.20;;;;;;;12.18;94.42;101447.03;5071370;28;20507;-76
2022/08/06 05:31:35;;;;;;;2.90;0.93;;;;;;;12.22;94.90;101456.28;5071580;28;20862;-77
2022/08/06 05:34:02;;;;;;;0.10;0.10;;;;;;;12.26;94.42;101464.72;5071639;28;20216;-77
2022/08/06 05:36:27;;;;;;;1.40;1.00;;;;;;;12.33;94.21;101465.16;5066607;28;20232;-77
2022/08/06 05:38:53;;;;;;;0.20;0.20;;;;;;;12.38;94.17;101463.16;5070984;28;20179;-77
2022/08/06 05:41:19;;;;;;;0.20;0.20;;;;;;;12.42;93.02;101458.69;5071469;28;20202;-77
2022/08/06 05:43:45;;;;;;;0.00;0.00;;;;;;;12.50;92.25;101469.00;5071302;28;20178;-77
2022/08/06 05:46:13;;;;;;;0.03;0.03;;;;;;;12.58;92.51;101472.16;5071417;28;20174;-77
2022/08/06 05:48:45;;;;;;;0.10;0.10;;;;;;;12.61;92.19;101471.56;5071021;28;20171;-77
2022/08/06 05:51:25;;;;;;;2.83;1.57;;;;;;;12.66;91.61;101479.69;5071304;28;20167;-77
2022/08/06 05:53:57;;;;;;;0.20;0.20;;;;;;;12.71;92.38;101474.94;5071136;28;20195;-77
2022/08/06 05:56:31;;;;;;;0.17;0.17;;;;;;;12.77;92.64;101483.91;5071189;28;20480;-78
2022/08/06 05:59:01;;;;;;;0.00;0.00;;;;;;;12.81;92.09;101490.41;5068680;28;20171;-77
2022/08/06 06:01:27;;;;;;;0.00;0.00;;;;;;;12.89;92.18;101489.72;5069583;28;20236;-77
2022/08/06 06:03:54;;;;;;;0.00;0.00;;;;;;;12.98;91.11;101492.56;5071063;28;20591;-78
2022/08/06 06:06:21;;;;;;;0.00;0.00;;;;;;;13.11;91.18;101486.31;5071011;28;20198;-78
2022/08/06 06:08:46;;;;;;;0.10;0.10;;;;;;;13.15;89.56;101495.53;5070964;28;20638;-77
2022/08/06 06:11:13;;;;;;;0.00;0.00;;;;;;;13.18;90.00;101503.22;5070938;28;20174;-77
2022/08/06 06:13:41;;;;;;;0.53;0.53;;;;;;;13.20;89.57;101498.25;5070949;28;20248;-78
2022/08/06 06:16:29;;;;;;;0.00;0.00;;;;;;;13.27;90.29;101497.84;5071362;28;20520;-83
2022/08/06 06:19:06;;;;;;;0.20;0.20;;;;;;;13.27;89.14;101497.84;5070756;28;20261;-77
2022/08/06 06:21:50;;;;;;;0.00;0.00;;;;;;;13.29;89.26;101501.09;5071040;28;20217;-75
2022/08/06 06:24:22;;;;;;;0.10;0.10;;;;;;;13.37;89.43;101501.22;5070835;28;20178;-76
2022/08/06 06:26:57;;;;;;;0.00;0.00;;;;;;;13.40;89.70;101500.59;5070584;28;20450;-76
2022/08/06 06:29:54;;;;;;;0.10;0.10;;;;;;;13.53;90.00;101504.47;5070481;28;20170;-76
2022/08/06 06:32:46;;;;;;;0.00;0.00;;;;;;;13.63;89.70;101503.44;5070972;28;20643;-75
2022/08/06 06:35:26;;;;;;;0.00;0.00;;;;;;;13.70;90.26;101518.38;5070642;28;20538;-76
2022/08/06 06:38:27;;;;;;;0.00;0.00;;;;;;;13.78;89.58;101511.38;5070488;28;20205;-77
2022/08/06 06:41:08;;;;;;;0.00;0.00;;;;;;;13.77;88.23;101508.94;5061064;28;20182;-76
2022/08/06 06:44:02;;;;;;;0.00;0.00;;;;;;;13.82;88.55;101512.38;5070566;28;20182;-76
2022/08/06 06:46:38;;;;;;;0.00;0.00;;;;;;;13.87;88.94;101508.69;5070646;28;20662;-76
2022/08/06 06:49:49;;;;;;;0.00;0.00;;;;;;;13.91;89.17;101516.03;5070458;28;20166;-76
2022/08/06 06:52:28;;;;;;;0.00;0.00;;;;;;;13.94;88.45;101515.41;5046716;28;20213;-76
2022/08/06 06:55:20;;;;;;;4.67;0.40;;;;;;;14.00;89.63;101516.94;5070418;28;20187;-76
2022/08/06 06:57:51;;;;;;;0.10;0.10;;;;;;;14.07;89.57;101518.47;5065632;28;20712;-77
2022/08/06 07:00:17;;;;;;;0.00;0.00;;;;;;;14.14;89.72;101516.91;5069465;28;20174;-77
2022/08/06 07:02:46;;;;;;;0.00;0.00;;;;;;;14.18;89.36;101525.38;5069092;28;20208;-75
2022/08/06 07:05:13;;;;;;;4.43;0.73;;;;;;;14.27;89.51;101529.00;5069067;28;20186;-76
2022/08/06 07:07:40;;;;;;;0.00;0.00;;;;;;;14.33;89.45;101530.50;5070269;28;20170;-77
2022/08/06 07:10:09;;;;;;;0.00;0.00;;;;;;;14.43;87.98;101532.19;5070140;28;20181;-75
2022/08/06 07:12:35;;;;;;;0.00;0.00;;;;;;;14.64;87.08;101538.88;5070698;28;20167;-74
2022/08/06 07:15:04;;;;;;;1.50;0.53;;;;;;;14.79;87.05;101544.03;5074354;28;20182;-76
2022/08/06 07:17:31;;;;;;;0.10;0.10;;;;;;;14.92;87.02;101544.28;5074024;28;20754;-75
2022/08/06 07:20:01;;;;;;;0.20;0.20;;;;;;;14.95;86.09;101541.69;5073956;28;20200;-76
2022/08/06 07:22:27;;;;;;;0.00;0.00;;;;;;;15.05;85.45;101543.38;5074194;28;20173;-76
2022/08/06 07:24:58;;;;;;;0.00;0.00;;;;;;;15.11;84.54;101542.13;5074546;28;20170;-75
2022/08/06 07:27:28;;;;;;;0.00;0.00;;;;;;;15.17;84.27;101538.91;5072649;28;20630;-76
2022/08/06 07:29:55;;;;;;;0.00;0.00;;;;;;;15.22;83.07;101549.00;5073671;28;20661;-77
2022/08/06 07:32:21;;;;;;;0.00;0.00;;;;;;;15.32;82.37;101551.44;5073882;28;20167;-76
2022/08/06 07:34:48;;;;;;;0.00;0.00;;;;;;;15.43;82.10;101555.56;5074198;28;20174;-76
2022/08/06 07:37:16;;;;;;;0.10;0.10;;;;;;;15.50;81.36;101551.56;5073716;28;20221;-76
2022/08/06 07:39:43;;;;;;;0.00;0.00;;;;;;;15.58;81.54;101559.03;5073564;28;20228;-76
2022/08/06 07:42:14;;;;;;;0.00;0.00;;;;;;;15.76;80.98;101555.22;5073839;28;20526;-76
2022/08/06 07:44:47;;;;;;;0.00;0.00;;;;;;;15.80;75.30;101555.44;5073637;28;20648;-76
2022/08/06 07:47:15;;;;;;;0.00;0.00;;;;;;;15.89;75.58;101568.09;5073722;28;20166;-74
2022/08/06 07:49:42;;;;;;;0.13;0.13;;;;;;;15.88;75.60;101563.72;5073651;28;20174;-76
2022/08/06 07:52:13;;;;;;;0.00;0.00;;;;;;;15.98;75.33;101573.63;5073758;28;20204;-74
2022/08/06 07:54:40;;;;;;;0.00;0.00;;;;;;;16.01;74.02;101573.00;5073897;28;20166;-75
2022/08/06 07:57:06;;;;;;;0.00;0.00;;;;;;;16.06;74.37;101572.88;5073181;28;20316;-75
2022/08/06 07:59:32;;;;;;;0.00;0.00;;;;;;;16.05;73.71;101572.03;5072164;28;20198;-76
2022/08/06 08:02:02;;;;;;;1.10;1.10;;;;;;;16.04;74.06;101575.09;5073363;28;20310;-76
2022/08/06 08:07:14;;;;;;;0.00;0.00;;;;;;;16.34;73.23;101579.69;5073425;28;20192;-76
2022/08/06 08:09:41;;;;;;;0.00;0.00;;;;;;;16.42;70.37;101583.63;5073226;28;20174;-74
2022/08/06 08:12:07;;;;;;;0.00;0.00;;;;;;;16.37;70.83;101572.75;5073995;28;20198;-75
2022/08/06 08:14:34;;;;;;;0.67;0.67;;;;;;;16.32;69.54;101579.22;5075111;28;20171;-75
2022/08/06 08:16:59;;;;;;;0.00;0.00;;;;;;;16.56;70.22;101586.22;5073911;28;20439;-75
2022/08/06 08:19:33;;;;;;;0.00;0.00;;;;;;;16.65;69.25;101579.59;5073124;28;20177;-75
2022/08/06 08:22:13;;;;;;;0.00;0.00;;;;;;;16.62;69.96;101590.44;5074197;28;20175;-74
2022/08/06 08:24:39;;;;;;;0.00;0.00;;;;;;;16.83;70.80;101576.84;5071945;28;20178;-74
2022/08/06 08:27:10;;;;;;;0.10;0.10;;;;;;;16.91;68.51;101581.53;5072941;28;20175;-74
2022/08/06 08:29:36;;;;;;;0.00;0.00;;;;;;;16.89;68.01;101583.81;5073103;28;20178;-74
2022/08/06 08:32:02;;;;;;;0.00;0.00;;;;;;;16.87;69.01;101575.06;5072889;28;20220;-75
2022/08/06 08:34:28;;;;;;;0.00;0.00;;;;;;;16.97;69.51;101582.19;5071708;28;20170;-74
2022/08/06 08:36:53;;;;;;;0.00;0.00;;;;;;;16.87;67.54;101586.91;5072707;28;20202;-74
2022/08/06 08:39:19;;;;;;;0.00;0.00;;;;;;;16.92;67.62;101578.47;5072546;28;20170;-74
2022/08/06 08:41:49;;;;;;;0.13;0.13;;;;;;;17.01;66.38;101578.44;5072705;28;20253;-74
2022/08/06 08:44:19;;;;;;;0.00;0.00;;;;;;;17.21;66.95;101586.06;5072596;28;20171;-75
2022/08/06 08:46:45;;;;;;;0.00;0.00;;;;;;;17.28;65.65;101584.75;5072427;28;20232;-74
2022/08/06 08:49:26;;;;;;;0.00;0.00;;;;;;;17.25;66.50;101589.78;5072402;28;20872;-75
2022/08/06 08:51:53;;;;;;;0.00;0.00;;;;;;;17.24;65.00;101582.63;5072469;28;20182;-74
2022/08/06 08:54:24;;;;;;;0.00;0.00;;;;;;;17.35;64.89;101585.03;5072412;28;20216;-74
2022/08/06 08:56:50;;;;;;;0.33;0.10;;;;;;;17.05;63.40;101593.22;5072293;28;20653;-75
2022/08/06 08:59:16;;;;;;;0.00;0.00;;;;;;;17.21;64.32;101599.88;5071231;28;20167;-74
2022/08/06 09:01:42;;;;;;;0.00;0.00;;;;;;;17.32;62.96;101594.78;5072335;28;20513;-74
2022/08/06 09:04:07;;;;;;;0.00;0.00;;;;;;;17.31;62.33;101589.59;5072351;28;20178;-74
2022/08/06 09:06:35;;;;;;;0.00;0.00;;;;;;;17.44;63.51;101594.13;5071947;28;20633;-76
2022/08/06 09:09:03;;;;;;;0.00;0.00;;;;;;;17.51;63.75;101598.00;5070538;28;20174;-74
2022/08/06 09:11:32;;;;;;;0.00;0.00;;;;;;;17.67;65.23;101601.03;5072659;28;20262;-75
2022/08/06 09:14:06;;;;;;;0.00;0.00;;;;;;;17.54;61.12;101589.06;5072140;28;20240;-74
2022/08/06 09:16:33;;;;;;;0.00;0.00;;;;;;;17.63;60.87;101602.00;5071757;28;20194;-75
2022/08/06 09:18:59;;;;;;;0.00;0.00;;;;;;;17.43;60.32;101598.84;5071734;28;20170;-75
2022/08/06 09:21:25;;;;;;;0.00;0.00;;;;;;;17.34;62.09;101598.03;5071794;28;20257;-73
2022/08/06 09:23:51;;;;;;;0.00;0.00;;;;;;;17.40;61.63;101598.69;5071852;28;20261;-75
2022/08/06 09:26:16;;;;;;;0.07;0.00;;;;;;;17.54;62.69;101602.06;5071879;28;20175;-75
2022/08/06 09:28:43;;;;;;;0.00;0.00;;;;;;;17.80;63.50;101604.75;5071353;28;20671;-75
2022/08/06 09:31:08;;;;;;;0.10;0.10;;;;;;;18.02;62.84;101598.94;5070294;28;20200;-75
2022/08/06 09:33:37;;;;;;;0.03;0.03;;;;;;;17.96;61.99;101597.53;5071591;28;20262;-74
2022/08/06 09:36:20;;;;;;;0.00;0.00;;;;;;;18.15;60.04;101608.16;5071073;28;20181;-75
2022/08/06 09:38:50;;;;;;;0.00;0.00;;;;;;;18.06;58.20;101605.41;5069958;28;20179;-75
2022/08/06 09:41:17;;;;;;;0.00;0.00;;;;;;;18.01;58.96;101602.03;5071467;28;20178;-75
2022/08/06 09:43:45;;;;;;;0.00;0.00;;;;;;;18.16;60.84;101598.72;5071391;28;20174;-74
2022/08/06 09:46:10;;;;;;;0.00;0.00;;;;;;;18.38;60.30;101603.16;5070140;28;20225;-75
2022/08/06 09:48:36;;;;;;;0.00;0.00;;;;;;;18.50;59.53;101592.13;5069306;28;20194;-74
2022/08/06 09:51:02;;;;;;;0.00;0.00;;;;;;;18.54;59.06;101601.41;5068134;28;20170;-75
2022/08/06 09:53:28;;;;;;;0.00;0.00;;;;;;;18.12;57.97;101601.34;5070864;28;20273;-74
2022/08/06 09:55:55;;;;;;;0.00;0.00;;;;;;;17.63;58.67;101602.81;5070810;28;20740;-74
2022/08/06 09:58:29;;;;;;;0.00;0.00;;;;;;;17.82;60.60;101597.75;5070092;28;20194;-73
2022/08/06 10:00:55;;;;;;;0.00;0.00;;;;;;;18.25;61.06;101595.91;5069025;28;20185;-75
2022/08/06 10:03:20;;;;;;;0.00;0.00;;;;;;;18.60;58.88;101602.00;5070692;28;20175;-75
2022/08/06 10:05:46;;;;;;;0.20;0.20;;;;;;;18.50;57.25;101600.44;5070772;28;20181;-74
2022/08/06 10:08:16;;;;;;;0.00;0.00;;;;;;;18.54;58.94;101603.34;5070006;28;20202;-75
2022/08/06 10:10:48;;;;;;;0.10;0.10;;;;;;;18.58;58.12;101609.84;5070506;28;20660;-74
2022/08/06 10:13:27;;;;;;;0.00;0.00;;;;;;;18.71;58.66;101601.28;5070646;28;20664;-75
2022/08/06 10:15:55;;;;;;;0.20;0.10;;;;;;;18.82;56.71;101604.47;5070507;28;20565;-74
2022/08/06 10:18:41;;;;;;;0.00;0.00;;;;;;;18.90;57.08;101600.78;5069654;28;20208;-75
2022/08/06 10:21:09;;;;;;;0.00;0.00;;;;;;;18.42;56.95;101602.13;5070361;28;20562;-73
2022/08/06 10:23:40;;;;;;;0.00;0.00;;;;;;;18.63;57.09;101599.38;5070515;28;20175;-74
2022/08/06 10:26:08;;;;;;;0.10;0.10;;;;;;;18.69;56.26;101598.06;5070342;28;20677;-74
2022/08/06 10:28:35;;;;;;;0.00;0.00;;;;;;;18.91;56.55;101601.59;5069888;28;20174;-75
2022/08/06 10:31:06;;;;;;;0.00;0.00;;;;;;;18.88;55.22;101594.78;5070290;28;20557;-75
2022/08/06 10:33:41;;;;;;;0.07;0.07;;;;;;;19.05;56.21;101596.59;5070690;28;20170;-74
2022/08/06 10:36:13;;;;;;;0.00;0.00;;;;;;;19.20;54.50;101590.41;5060757;28;20633;-74
2022/08/06 10:38:42;;;;;;;0.10;0.10;;;;;;;18.85;52.37;101592.72;5062500;28;20200;-74
2022/08/06 10:41:09;;;;;;;0.00;0.00;;;;;;;19.18;54.87;101592.72;5067066;28;20245;-74
2022/08/06 10:43:37;;;;;;;0.00;0.00;;;;;;;19.51;54.30;101586.31;5070227;28;20170;-74
2022/08/06 10:46:12;;;;;;;0.00;0.00;;;;;;;19.71;52.89;101596.56;5067182;28;20188;-74
2022/08/06 10:48:39;;;;;;;0.03;0.03;;;;;;;19.88;53.59;101587.19;5071442;28;20194;-74
2022/08/06 10:51:07;;;;;;;0.00;0.00;;;;;;;19.59;53.27;101589.03;5071330;28;20232;-74
2022/08/06 10:53:34;;;;;;;0.00;0.00;;;;;;;19.76;52.86;101603.81;5066665;28;20213;-74
2022/08/06 10:56:02;;;;;;;0.00;0.00;;;;;;;19.73;54.92;101583.16;5074809;28;20653;-75
2022/08/06 10:58:30;;;;;;;0.00;0.00;;;;;;;19.32;54.08;101589.63;5073221;28;20209;-75
2022/08/06 11:00:58;;;;;;;0.00;0.00;;;;;;;19.12;55.55;101587.72;5074156;28;20171;-74
2022/08/06 11:03:45;;;;;;;0.00;0.00;;;;;;;19.25;55.63;101592.16;5074096;28;20240;-74
2022/08/06 11:06:35;;;;;;;0.47;0.00;;;;;;;19.49;53.17;101583.06;5074081;28;20194;-75
2022/08/06 11:09:18;;;;;;;0.00;0.00;;;;;;;19.35;52.70;101588.13;5073508;28;20190;-74
2022/08/06 11:12:18;;;;;;;0.00;0.00;;;;;;;19.30;52.22;101587.22;5070684;28;20186;-74
2022/08/06 11:14:45;;;;;;;0.00;0.00;;;;;;;18.94;53.09;101590.66;5073237;28;20594;-74
2022/08/06 11:17:10;;;;;;;0.00;0.00;;;;;;;18.63;53.90;101585.53;5073715;28;20194;-74
2022/08/06 11:19:39;;;;;;;0.00;0.00;;;;;;;18.55;53.88;101580.88;5073287;28;20182;-74
2022/08/06 11:22:05;;;;;;;0.00;0.00;;;;;;;18.97;54.20;101578.91;5071190;28;20273;-74
2022/08/06 11:24:32;;;;;;;0.00;0.00;;;;;;;19.31;52.44;101579.69;5073779;28;20270;-73
2022/08/06 11:26:57;;;;;;;0.00;0.00;;;;;;;19.18;51.80;101578.03;5073743;28;20595;-74
2022/08/06 11:29:23;;;;;;;0.00;0.00;;;;;;;19.27;52.75;101579.59;5073053;28;20270;-74
2022/08/06 11:31:50;;;;;;;0.00;0.00;;;;;;;19.00;53.65;101578.22;5072285;28;20181;-74
2022/08/06 11:34:20;;;;;;;0.00;0.00;;;;;;;19.39;52.59;101573.25;5073547;28;20178;-73
2022/08/06 11:36:48;;;;;;;0.00;0.00;;;;;;;19.90;51.53;101573.78;5073103;28;20221;-74
2022/08/06 11:39:14;;;;;;;0.00;0.00;;;;;;;20.38;50.24;101575.69;5071593;28;20515;-74